CheckWX is a tool to help pilots better visualize weather data.  It is not intended as a substitute for an official pre-flight weather briefing.

04:33:56 UTC

KEHR METAR
Henderson City-County Airport
Henderson, Kentucky, USA
Current

38 mins ago

KEHR 290356Z AUTO 34008KT 10SM BKN045 BKN070 02/M02 A3018 RMK AO2 SLP221 T00221022 FZRANO
Observed
Feb-29 @ 03:56 UTC
Wind
  • 340° at 8 KTS
Visibility
10 SM
Flight Rules
VFR
Cloud Levels
  • Broken at 4,500' AGL
  • Broken at 7,000' AGL
Temperature
C / 36°F
Dewpoint
-2°C / 28°F
Humidity
75%
Altimeter
30.18" Hg
Pressure
1022.02 hPa
Previous

2 hours ago

KEHR 290256Z AUTO 33007KT 10SM SCT037 BKN060 OVC070 03/M01 A3016 RMK AO2 SLP215 T00281011 51022
Observed
Feb-29 @ 02:56 UTC
Wind
  • 330° at 7 KTS
Visibility
10 SM
Flight Rules
VFR
Cloud Levels
  • Scattered at 3,700' AGL
  • Broken at 6,000' AGL
  • Overcast at 7,000' AGL
Temperature
C / 37°F
Dewpoint
-1°C / 30°F
Humidity
75%
Altimeter
30.16" Hg
Pressure
1021.32 hPa
Previous

3 hours ago

KEHR 290156Z AUTO 34008KT 10SM FEW028 SCT040 OVC060 04/M01 A3015 RMK AO2 SLP211 T00391011
Observed
Feb-29 @ 01:56 UTC
Wind
  • 340° at 8 KTS
Visibility
10 SM
Flight Rules
VFR
Cloud Levels
  • Few at 2,800' AGL
  • Scattered at 4,000' AGL
  • Overcast at 6,000' AGL
Temperature
C / 39°F
Dewpoint
-1°C / 30°F
Humidity
70%
Altimeter
30.15" Hg
Pressure
1021.02 hPa